createdAt,value
2023-05-19T00:00:22.916Z,93.60
2023-05-19T00:02:51.842Z,93.80
2023-05-19T00:05:20.786Z,93.90
2023-05-19T00:07:52.961Z,93.90
2023-05-19T00:10:21.578Z,93.90
2023-05-19T00:12:51.365Z,93.90
2023-05-19T00:15:21.742Z,94.00
2023-05-19T00:17:49.829Z,94.00
2023-05-19T00:20:17.904Z,94.30
2023-05-19T00:22:45.862Z,94.00
2023-05-19T00:25:15.248Z,94.00
2023-05-19T00:27:43.337Z,94.10
2023-05-19T00:30:11.844Z,93.90
2023-05-19T00:32:39.848Z,93.80
2023-05-19T00:35:08.920Z,93.80
2023-05-19T00:37:36.896Z,93.80
2023-05-19T00:40:06.527Z,93.60
2023-05-19T00:42:35.948Z,93.60
2023-05-19T00:45:04.022Z,93.60
2023-05-19T00:47:32.080Z,93.60
2023-05-19T00:50:00.433Z,93.50
2023-05-19T00:52:29.234Z,93.60
2023-05-19T00:54:57.605Z,93.60
2023-05-19T00:57:27.016Z,93.80
2023-05-19T00:59:56.496Z,93.80
2023-05-19T01:02:24.644Z,93.90
2023-05-19T01:04:53.483Z,93.80
2023-05-19T01:07:23.370Z,94.00
2023-05-19T01:09:51.491Z,94.00
2023-05-19T01:12:19.604Z,93.90
2023-05-19T01:14:47.781Z,94.20
2023-05-19T01:17:27.002Z,94.00
2023-05-19T01:20:05.038Z,93.90
2023-05-19T01:22:44.208Z,93.90
2023-05-19T01:25:48.005Z,94.00
2023-05-19T01:28:56.306Z,93.90
2023-05-19T01:31:27.707Z,93.90
2023-05-19T01:33:56.452Z,94.00
2023-05-19T01:36:27.096Z,94.00
2023-05-19T01:38:57.775Z,94.00
2023-05-19T01:41:26.276Z,94.10
2023-05-19T01:43:54.296Z,94.00
2023-05-19T01:46:23.177Z,94.00
2023-05-19T01:48:54.375Z,94.10
2023-05-19T01:51:22.416Z,94.00
2023-05-19T01:53:50.446Z,94.00
2023-05-19T01:56:27.279Z,94.40
2023-05-19T01:59:04.945Z,94.20
2023-05-19T02:01:39.469Z,94.10
2023-05-19T02:04:19.699Z,94.30
2023-05-19T02:06:56.134Z,94.20
2023-05-19T02:09:27.922Z,94.20
2023-05-19T02:12:01.219Z,94.40
2023-05-19T02:14:34.833Z,94.40
2023-05-19T02:17:05.566Z,94.50
2023-05-19T02:19:40.555Z,94.50
2023-05-19T02:22:08.667Z,94.60
2023-05-19T02:24:37.547Z,94.60
2023-05-19T02:27:06.169Z,94.70
2023-05-19T02:29:34.177Z,94.80
2023-05-19T02:32:02.804Z,94.80
2023-05-19T02:34:30.783Z,94.90
2023-05-19T02:37:00.166Z,94.90
2023-05-19T02:39:34.896Z,95.00
2023-05-19T02:42:02.905Z,95.10
2023-05-19T02:44:30.940Z,95.10
2023-05-19T02:46:58.996Z,95.20
2023-05-19T02:49:27.110Z,95.20
2023-05-19T02:51:55.100Z,95.20
2023-05-19T02:54:24.440Z,95.10
2023-05-19T02:56:52.432Z,95.10
2023-05-19T02:59:20.385Z,95.00
2023-05-19T03:01:48.481Z,95.30
2023-05-19T03:04:16.513Z,95.00
2023-05-19T03:06:45.242Z,94.90
2023-05-19T03:09:13.701Z,94.90
2023-05-19T03:11:43.154Z,94.90
2023-05-19T03:14:12.047Z,94.90
2023-05-19T03:16:41.214Z,95.00
2023-05-19T03:19:09.900Z,95.30
2023-05-19T03:21:38.087Z,95.00
2023-05-19T03:24:06.678Z,94.70
2023-05-19T03:26:34.954Z,95.00
2023-05-19T03:29:04.350Z,95.10
2023-05-19T03:31:32.353Z,95.20
2023-05-19T03:34:00.461Z,95.20
2023-05-19T03:36:31.996Z,95.20
2023-05-19T03:39:00.158Z,95.30
2023-05-19T03:41:28.156Z,95.30
2023-05-19T03:43:56.162Z,95.30
2023-05-19T03:46:25.797Z,95.40
2023-05-19T03:48:53.924Z,95.40
2023-05-19T03:51:21.924Z,95.70
2023-05-19T03:53:49.921Z,95.50
2023-05-19T03:56:18.271Z,95.50
2023-05-19T03:58:47.107Z,95.60
2023-05-19T04:01:15.137Z,95.60
2023-05-19T04:03:44.540Z,95.50
2023-05-19T04:06:12.912Z,95.60
2023-05-19T04:08:41.016Z,95.60
2023-05-19T04:11:08.985Z,95.60
2023-05-19T04:13:36.967Z,95.60
2023-05-19T04:16:05.466Z,95.50
2023-05-19T04:18:33.495Z,95.50
2023-05-19T04:21:02.871Z,95.50
2023-05-19T04:23:31.610Z,95.40
2023-05-19T04:26:01.523Z,95.30
2023-05-19T04:28:29.886Z,95.30
2023-05-19T04:30:58.786Z,95.30
2023-05-19T04:33:29.323Z,95.30
2023-05-19T04:35:58.382Z,95.20
2023-05-19T04:38:29.957Z,95.30
2023-05-19T04:41:01.624Z,95.20
2023-05-19T04:43:29.757Z,95.20
2023-05-19T04:45:58.179Z,95.10
2023-05-19T04:48:27.400Z,95.20
2023-05-19T04:50:55.415Z,95.20
2023-05-19T04:53:25.658Z,95.30
2023-05-19T04:55:55.028Z,95.30
2023-05-19T04:58:25.718Z,95.30
2023-05-19T05:00:55.726Z,95.30
2023-05-19T05:03:23.971Z,95.30
2023-05-19T05:05:52.436Z,95.20
2023-05-19T05:08:23.142Z,95.20
2023-05-19T05:10:52.350Z,95.20
2023-05-19T05:13:23.948Z,95.20
2023-05-19T05:15:53.164Z,95.10
2023-05-19T05:18:21.886Z,95.10
2023-05-19T05:20:50.451Z,95.20
2023-05-19T05:23:19.157Z,95.30
2023-05-19T05:25:48.849Z,95.30
2023-05-19T05:28:17.201Z,95.20
2023-05-19T05:30:46.595Z,95.30
2023-05-19T05:33:14.774Z,95.30
2023-05-19T05:35:42.909Z,95.30
2023-05-19T05:38:11.535Z,95.40
2023-05-19T05:40:39.608Z,95.40
2023-05-19T05:43:07.614Z,95.40
2023-05-19T05:45:35.757Z,95.50
2023-05-19T05:48:06.226Z,95.60
2023-05-19T05:50:35.099Z,95.50
2023-05-19T05:53:04.669Z,95.50
2023-05-19T05:55:33.660Z,95.50
2023-05-19T05:58:02.314Z,95.50
2023-05-19T06:00:30.560Z,95.60
2023-05-19T06:02:59.234Z,95.60
2023-05-19T06:05:28.772Z,95.60
2023-05-19T06:07:57.010Z,95.60
2023-05-19T06:10:25.038Z,95.50
2023-05-19T06:12:53.144Z,95.40
2023-05-19T06:15:21.146Z,95.40
2023-05-19T06:17:49.216Z,95.20
2023-05-19T06:20:17.480Z,95.10
2023-05-19T06:22:46.816Z,95.20
2023-05-19T06:25:14.892Z,95.10
2023-05-19T06:27:43.539Z,95.00
2023-05-19T06:30:12.406Z,95.10
2023-05-19T06:32:40.573Z,95.10
2023-05-19T06:35:09.437Z,95.20
2023-05-19T06:37:37.411Z,95.20
2023-05-19T06:40:08.227Z,95.30
2023-05-19T06:42:36.251Z,95.40
2023-05-19T06:45:04.392Z,95.40
2023-05-19T06:47:32.454Z,95.30
2023-05-19T06:50:00.427Z,95.40
2023-05-19T06:52:28.463Z,95.40
2023-05-19T06:54:56.497Z,95.50
2023-05-19T06:57:25.861Z,95.50
2023-05-19T06:59:53.846Z,95.60
2023-05-19T07:02:21.843Z,95.80
2023-05-19T07:04:51.334Z,95.90
2023-05-19T07:07:19.335Z,95.90
2023-05-19T07:09:47.423Z,95.90
2023-05-19T07:12:15.483Z,95.80
2023-05-19T07:14:44.818Z,96.10
2023-05-19T07:17:12.836Z,95.70
2023-05-19T07:19:40.830Z,95.70
2023-05-19T07:22:08.819Z,95.80
2023-05-19T07:24:36.873Z,95.80
2023-05-19T07:27:05.315Z,95.90
2023-05-19T07:29:33.306Z,95.70
2023-05-19T07:32:02.817Z,95.50
2023-05-19T07:34:30.914Z,95.30
2023-05-19T07:36:58.954Z,95.40
2023-05-19T07:39:29.684Z,95.50
2023-05-19T07:41:57.993Z,95.50
2023-05-19T07:44:27.077Z,95.60
2023-05-19T07:46:55.147Z,95.50
2023-05-19T07:49:24.677Z,95.60
2023-05-19T07:51:52.728Z,95.40
2023-05-19T07:54:20.934Z,95.20
2023-05-19T07:56:49.184Z,95.00
2023-05-19T07:59:17.626Z,95.10
2023-05-19T08:01:45.734Z,95.00
2023-05-19T08:04:14.074Z,94.70
2023-05-19T08:06:44.553Z,94.70
2023-05-19T08:09:12.950Z,94.10
2023-05-19T08:11:41.084Z,94.10
2023-05-19T08:14:09.085Z,94.10
2023-05-19T08:16:37.117Z,94.20
2023-05-19T08:19:06.834Z,94.20
2023-05-19T08:21:35.526Z,94.30
2023-05-19T08:24:05.347Z,94.30
2023-05-19T08:26:35.060Z,94.50
2023-05-19T08:29:04.357Z,94.70
2023-05-19T08:31:32.672Z,94.30
2023-05-19T08:34:00.748Z,93.80
2023-05-19T08:36:29.455Z,93.30
2023-05-19T08:38:57.542Z,93.50
2023-05-19T08:41:27.054Z,93.50
2023-05-19T08:43:55.218Z,93.00
2023-05-19T08:46:25.986Z,93.00
2023-05-19T08:48:59.381Z,92.90
2023-05-19T08:51:37.817Z,93.00
2023-05-19T08:54:13.890Z,93.20
2023-05-19T08:56:44.855Z,93.00
2023-05-19T08:59:14.271Z,92.90
2023-05-19T09:01:45.626Z,92.90
2023-05-19T09:04:14.684Z,93.10
2023-05-19T09:06:44.988Z,92.80
2023-05-19T09:09:13.393Z,92.70
2023-05-19T09:11:41.483Z,92.60
2023-05-19T09:14:11.489Z,92.80
2023-05-19T09:16:40.133Z,92.80
2023-05-19T09:19:16.026Z,92.50
2023-05-19T09:21:45.718Z,92.60
2023-05-19T09:24:13.852Z,92.40
2023-05-19T09:26:43.609Z,91.50
2023-05-19T09:29:16.737Z,90.60
2023-05-19T09:31:55.962Z,90.90
2023-05-19T09:34:25.033Z,91.00
2023-05-19T09:36:54.230Z,90.90
2023-05-19T09:39:25.199Z,91.40
2023-05-19T09:41:53.816Z,91.70
2023-05-19T09:44:29.358Z,91.80
2023-05-19T09:46:58.275Z,91.60
2023-05-19T09:49:29.461Z,91.30
2023-05-19T09:51:58.616Z,89.80
2023-05-19T09:54:29.553Z,88.60
2023-05-19T09:57:01.327Z,88.30
2023-05-19T09:59:33.544Z,88.70
2023-05-19T10:02:03.372Z,89.00
2023-05-19T10:04:32.341Z,89.30
2023-05-19T10:07:00.859Z,89.20
2023-05-19T10:09:29.862Z,88.60
2023-05-19T10:11:59.226Z,88.30
2023-05-19T10:14:28.146Z,88.80
2023-05-19T10:16:59.484Z,88.30
2023-05-19T10:19:28.909Z,87.20
2023-05-19T10:21:57.382Z,86.80
2023-05-19T10:24:25.440Z,87.30
2023-05-19T10:26:58.141Z,88.30
2023-05-19T10:29:29.908Z,87.80
2023-05-19T10:32:05.291Z,88.30
2023-05-19T10:35:02.999Z,87.70
2023-05-19T10:37:40.931Z,86.20
2023-05-19T10:40:14.803Z,85.30
2023-05-19T10:42:52.425Z,85.50
2023-05-19T10:45:24.979Z,86.70
2023-05-19T10:47:56.073Z,88.00
2023-05-19T10:50:24.190Z,86.90
2023-05-19T10:52:55.647Z,85.40
2023-05-19T10:55:48.787Z,85.60
2023-05-19T10:58:16.929Z,85.60
2023-05-19T11:00:44.992Z,86.00
2023-05-19T11:03:18.851Z,85.30
2023-05-19T11:05:50.001Z,85.60
2023-05-19T11:08:18.719Z,86.20
2023-05-19T11:10:47.027Z,85.60
2023-05-19T11:13:22.992Z,85.20
2023-05-19T11:15:51.295Z,85.10
2023-05-19T11:18:21.419Z,83.60
2023-05-19T11:20:58.085Z,83.20
2023-05-19T11:23:27.179Z,83.40
2023-05-19T11:25:55.191Z,83.50
2023-05-19T11:28:26.101Z,83.50
2023-05-19T11:30:57.826Z,83.00
2023-05-19T11:33:28.061Z,82.10
2023-05-19T11:35:58.895Z,83.20
2023-05-19T11:38:28.448Z,83.40
2023-05-19T11:40:57.075Z,84.40
2023-05-19T11:43:25.754Z,84.50
2023-05-19T11:45:55.776Z,84.20
2023-05-19T11:48:24.546Z,83.10
2023-05-19T11:50:54.335Z,83.20
2023-05-19T11:53:22.570Z,83.10
2023-05-19T11:55:51.098Z,83.20
2023-05-19T11:58:19.548Z,83.40
2023-05-19T12:00:48.051Z,81.30
2023-05-19T12:03:17.368Z,81.30
2023-05-19T12:05:47.592Z,80.60
2023-05-19T12:08:18.597Z,80.40
2023-05-19T12:10:49.440Z,80.40
2023-05-19T12:13:17.809Z,79.90
2023-05-19T12:15:45.963Z,80.10
2023-05-19T12:18:14.052Z,80.00
2023-05-19T12:20:42.256Z,80.40
2023-05-19T12:23:10.808Z,79.60
2023-05-19T12:25:40.391Z,78.50
2023-05-19T12:28:08.485Z,78.50
2023-05-19T12:30:36.929Z,78.80
2023-05-19T12:33:05.388Z,78.20
2023-05-19T12:35:34.366Z,78.50
2023-05-19T12:38:05.667Z,79.00
2023-05-19T12:40:35.298Z,78.80
2023-05-19T12:43:05.729Z,78.30
2023-05-19T12:45:36.092Z,78.10
2023-05-19T12:48:05.982Z,78.10
2023-05-19T12:50:35.382Z,78.70
2023-05-19T12:53:03.694Z,78.10
2023-05-19T12:55:31.929Z,78.10
2023-05-19T12:58:00.388Z,78.90
2023-05-19T13:00:31.144Z,79.10
2023-05-19T13:03:01.990Z,79.20
2023-05-19T13:05:31.933Z,79.10
2023-05-19T13:08:01.987Z,79.20
2023-05-19T13:10:31.388Z,78.50
2023-05-19T13:13:01.094Z,78.80
2023-05-19T13:15:34.198Z,79.00
2023-05-19T13:18:03.869Z,79.30
2023-05-19T13:20:32.232Z,80.90
2023-05-19T13:23:00.792Z,81.20
2023-05-19T13:25:29.135Z,80.10
2023-05-19T13:27:59.351Z,78.90
2023-05-19T13:30:27.413Z,79.30
2023-05-19T13:32:57.046Z,80.30
2023-05-19T13:35:25.214Z,79.40
2023-05-19T13:37:53.249Z,79.30
2023-05-19T13:40:21.384Z,79.50
2023-05-19T13:42:49.873Z,79.50
2023-05-19T13:45:18.333Z,79.60
2023-05-19T13:47:46.412Z,80.10
2023-05-19T13:50:15.836Z,79.20
2023-05-19T13:52:43.932Z,79.60
2023-05-19T13:55:11.952Z,80.20
2023-05-19T13:57:41.543Z,80.10
2023-05-19T14:00:11.568Z,80.70
2023-05-19T14:02:39.951Z,81.30
2023-05-19T14:05:08.886Z,81.10
2023-05-19T14:07:38.428Z,80.70
2023-05-19T14:10:07.544Z,81.10
2023-05-19T14:12:43.713Z,80.60
2023-05-19T14:15:15.587Z,80.30
2023-05-19T14:17:43.679Z,80.50
2023-05-19T14:20:12.709Z,81.10
2023-05-19T14:22:42.301Z,81.80
2023-05-19T14:25:10.609Z,82.40
2023-05-19T14:27:39.861Z,82.10
2023-05-19T14:30:09.601Z,82.40
2023-05-19T14:32:37.620Z,82.30
2023-05-19T14:35:06.541Z,81.30
2023-05-19T14:37:34.529Z,81.20
2023-05-19T14:40:04.569Z,81.40
2023-05-19T14:42:32.618Z,82.30
2023-05-19T14:45:00.940Z,82.10
2023-05-19T14:47:28.989Z,81.50
2023-05-19T14:49:57.070Z,81.50
2023-05-19T14:52:26.182Z,81.10
2023-05-19T14:54:54.351Z,81.10
2023-05-19T14:57:23.850Z,80.90
2023-05-19T14:59:51.946Z,80.40
2023-05-19T15:02:19.964Z,79.80
2023-05-19T15:04:48.165Z,79.70
2023-05-19T15:07:16.378Z,79.70
2023-05-19T15:09:44.738Z,79.30
2023-05-19T15:12:12.763Z,79.80
2023-05-19T15:14:42.201Z,79.70
2023-05-19T15:17:10.295Z,80.00
2023-05-19T15:19:38.612Z,80.40
2023-05-19T15:22:06.815Z,80.20
2023-05-19T15:24:34.930Z,80.40
2023-05-19T15:27:03.241Z,80.40
2023-05-19T15:29:31.272Z,80.80
2023-05-19T15:32:00.668Z,81.40
2023-05-19T15:34:28.653Z,80.60
2023-05-19T15:36:56.664Z,79.70
2023-05-19T15:39:24.677Z,79.00
2023-05-19T15:41:52.756Z,79.30
2023-05-19T15:44:20.738Z,79.40
2023-05-19T15:46:48.843Z,80.00
2023-05-19T15:49:18.290Z,80.40
2023-05-19T15:51:46.594Z,80.30
2023-05-19T15:54:14.589Z,80.90
2023-05-19T15:56:42.602Z,80.30
2023-05-19T15:59:10.589Z,80.10
2023-05-19T16:01:38.700Z,80.20
2023-05-19T16:04:06.846Z,79.80
2023-05-19T16:06:36.258Z,79.60
2023-05-19T16:09:04.808Z,79.60
2023-05-19T16:11:32.798Z,79.30
2023-05-19T16:14:00.892Z,78.30
2023-05-19T16:16:28.863Z,78.30
2023-05-19T16:18:57.019Z,78.50
2023-05-19T16:21:25.036Z,78.50
2023-05-19T16:23:54.450Z,78.70
2023-05-19T16:26:22.737Z,78.80
2023-05-19T16:28:50.820Z,78.80
2023-05-19T16:31:18.817Z,79.00
2023-05-19T16:33:47.244Z,78.50
2023-05-19T16:36:15.256Z,78.40
2023-05-19T16:38:43.269Z,78.70
2023-05-19T16:41:13.988Z,78.30
2023-05-19T16:43:42.007Z,78.50
2023-05-19T16:46:12.135Z,78.60
2023-05-19T16:48:40.358Z,79.20
2023-05-19T16:51:08.330Z,80.30
2023-05-19T16:53:36.316Z,80.00
2023-05-19T16:56:04.488Z,80.30
2023-05-19T16:58:33.952Z,80.40
2023-05-19T17:01:02.850Z,80.50
2023-05-19T17:03:31.833Z,80.90
2023-05-19T17:06:00.914Z,80.50
2023-05-19T17:08:28.895Z,79.80
2023-05-19T17:10:56.895Z,79.60
2023-05-19T17:13:24.870Z,80.30
2023-05-19T17:15:54.331Z,80.50
2023-05-19T17:18:22.321Z,80.50
2023-05-19T17:20:50.625Z,80.00
2023-05-19T17:23:18.860Z,79.90
2023-05-19T17:25:47.160Z,79.90
2023-05-19T17:28:15.172Z,80.10
2023-05-19T17:30:43.170Z,80.40
2023-05-19T17:33:12.944Z,80.70
2023-05-19T17:35:41.365Z,81.00
2023-05-19T17:38:09.428Z,81.10
2023-05-19T17:40:38.604Z,81.40
2023-05-19T17:43:08.230Z,81.50
2023-05-19T17:45:36.244Z,81.70
2023-05-19T17:48:06.033Z,81.80
2023-05-19T17:50:35.571Z,82.00
2023-05-19T17:53:04.283Z,81.90
2023-05-19T17:55:32.911Z,81.90
2023-05-19T17:58:01.419Z,81.70
2023-05-19T18:00:30.156Z,81.90
2023-05-19T18:02:59.058Z,81.80
2023-05-19T18:05:27.927Z,81.70
2023-05-19T18:07:58.431Z,81.80
2023-05-19T18:10:28.419Z,82.00
2023-05-19T18:12:56.594Z,82.00
2023-05-19T18:15:25.595Z,82.00
2023-05-19T18:17:53.613Z,82.00
2023-05-19T18:20:21.825Z,82.10
2023-05-19T18:22:49.860Z,82.30
2023-05-19T18:25:20.071Z,82.50
2023-05-19T18:27:48.104Z,82.60
2023-05-19T18:30:16.232Z,83.70
2023-05-19T18:32:44.334Z,83.80
2023-05-19T18:35:12.541Z,83.30
2023-05-19T18:37:40.958Z,83.50
2023-05-19T18:40:09.872Z,83.70
2023-05-19T18:42:39.257Z,83.90
2023-05-19T18:45:08.312Z,84.20
2023-05-19T18:47:36.695Z,84.30
2023-05-19T18:50:05.097Z,84.80
2023-05-19T18:52:33.133Z,84.80
2023-05-19T18:55:01.228Z,85.20
2023-05-19T18:57:29.256Z,85.30
2023-05-19T18:59:58.623Z,85.60
2023-05-19T19:02:26.717Z,85.50
2023-05-19T19:04:54.770Z,85.80
2023-05-19T19:07:23.135Z,86.20
2023-05-19T19:09:51.766Z,86.20
2023-05-19T19:12:20.474Z,86.10
2023-05-19T19:14:48.763Z,86.50
2023-05-19T19:17:18.201Z,86.70
2023-05-19T19:19:47.307Z,86.80
2023-05-19T19:22:15.599Z,87.20
2023-05-19T19:24:43.793Z,87.30
2023-05-19T19:27:11.990Z,87.30
2023-05-19T19:29:40.063Z,87.30
2023-05-19T19:32:08.627Z,87.60
2023-05-19T19:34:38.408Z,87.80
2023-05-19T19:37:06.435Z,87.80
2023-05-19T19:39:34.425Z,88.30
2023-05-19T19:42:02.509Z,88.20
2023-05-19T19:44:30.521Z,88.10
2023-05-19T19:46:58.539Z,88.10
2023-05-19T19:49:26.894Z,88.30
2023-05-19T19:51:56.290Z,88.50
2023-05-19T19:54:24.322Z,89.10
2023-05-19T19:56:52.303Z,90.00
2023-05-19T19:59:20.819Z,89.60
2023-05-19T20:01:48.960Z,89.50
2023-05-19T20:04:17.193Z,89.60
2023-05-19T20:06:45.670Z,89.70
2023-05-19T20:09:15.113Z,90.00
2023-05-19T20:11:43.504Z,90.10
2023-05-19T20:14:11.519Z,90.00
2023-05-19T20:16:40.395Z,90.00
2023-05-19T20:19:09.454Z,90.30
2023-05-19T20:21:37.648Z,90.40
2023-05-19T20:24:06.104Z,90.30
2023-05-19T20:26:36.234Z,90.40
2023-05-19T20:29:04.239Z,90.40
2023-05-19T20:31:32.286Z,90.40
2023-05-19T20:34:01.658Z,90.50
2023-05-19T20:36:30.156Z,90.50
2023-05-19T20:38:58.261Z,90.40
2023-05-19T20:41:26.315Z,90.40
2023-05-19T20:43:57.222Z,90.50
2023-05-19T20:46:25.505Z,90.50
2023-05-19T20:48:53.593Z,90.50
2023-05-19T20:51:22.277Z,90.60
2023-05-19T20:53:50.554Z,91.00
2023-05-19T20:56:18.621Z,90.60
2023-05-19T20:58:46.831Z,90.70
2023-05-19T21:01:16.285Z,90.70
2023-05-19T21:03:44.256Z,91.00
2023-05-19T21:06:13.966Z,90.90
2023-05-19T21:08:42.213Z,91.00
2023-05-19T21:11:10.192Z,90.90
2023-05-19T21:13:39.247Z,91.00
2023-05-19T21:16:07.861Z,91.20
2023-05-19T21:18:37.412Z,91.10
2023-05-19T21:21:05.691Z,91.20
2023-05-19T21:23:33.674Z,91.20
2023-05-19T21:26:01.698Z,91.20
2023-05-19T21:28:29.688Z,91.40
2023-05-19T21:30:57.699Z,91.30
2023-05-19T21:33:25.713Z,91.30
2023-05-19T21:35:55.045Z,91.70
2023-05-19T21:38:24.342Z,91.40
2023-05-19T21:40:53.054Z,91.30
2023-05-19T21:43:21.797Z,91.40
2023-05-19T21:45:49.913Z,91.50
2023-05-19T21:48:18.081Z,91.50
2023-05-19T21:50:46.149Z,91.50
2023-05-19T21:53:15.584Z,91.60
2023-05-19T21:55:44.274Z,91.60
2023-05-19T21:58:12.288Z,91.70
2023-05-19T22:00:40.454Z,91.80
2023-05-19T22:03:08.659Z,92.10
2023-05-19T22:05:38.112Z,91.90
2023-05-19T22:08:06.343Z,91.80
2023-05-19T22:10:37.084Z,92.10
2023-05-19T22:13:05.475Z,92.20
2023-05-19T22:15:33.469Z,92.30
2023-05-19T22:18:01.538Z,92.20
2023-05-19T22:20:29.609Z,92.30
2023-05-19T22:22:59.314Z,92.80
2023-05-19T22:25:27.464Z,92.60
2023-05-19T22:27:57.071Z,92.60
2023-05-19T22:30:25.323Z,93.10
2023-05-19T22:32:53.399Z,92.70
2023-05-19T22:35:21.579Z,93.00
2023-05-19T22:37:51.169Z,93.00
2023-05-19T22:40:19.302Z,93.10
2023-05-19T22:42:47.449Z,93.40
2023-05-19T22:45:16.820Z,93.50
2023-05-19T22:47:44.921Z,93.80
2023-05-19T22:50:13.200Z,93.80
2023-05-19T22:52:41.194Z,93.70
2023-05-19T22:55:10.036Z,93.90
2023-05-19T22:57:38.021Z,93.90
2023-05-19T23:00:07.027Z,94.00
2023-05-19T23:02:36.768Z,94.20
2023-05-19T23:05:05.108Z,94.30
2023-05-19T23:07:33.114Z,94.30
2023-05-19T23:10:01.132Z,94.40
2023-05-19T23:12:29.172Z,94.50
2023-05-19T23:14:57.215Z,94.40
2023-05-19T23:17:25.290Z,94.40
2023-05-19T23:19:54.845Z,94.30
2023-05-19T23:22:22.934Z,94.30
2023-05-19T23:24:51.087Z,94.40
2023-05-19T23:27:19.531Z,94.90
2023-05-19T23:29:49.770Z,94.70
2023-05-19T23:32:17.856Z,94.80
2023-05-19T23:34:45.894Z,95.20
2023-05-19T23:37:15.302Z,95.40
2023-05-19T23:39:43.318Z,95.50
2023-05-19T23:42:11.524Z,95.30
2023-05-19T23:44:39.514Z,95.30
2023-05-19T23:47:07.612Z,95.40
2023-05-19T23:49:35.764Z,95.60
2023-05-19T23:52:03.761Z,95.70
2023-05-19T23:54:33.089Z,95.80
2023-05-19T23:57:04.123Z,95.70
2023-05-19T23:59:32.160Z,95.80
